sensor_id;sensor_type;location;lat;lon;timestamp;pressure;altitude;pressure_sealevel;temperature;humidity
57847;BME280;43675;50.030;21.952;2023-05-23T00:00:58;98595.73;;;8.64;72.82
57847;BME280;43675;50.030;21.952;2023-05-23T00:03:25;98594.54;;;8.61;73.05
57847;BME280;43675;50.030;21.952;2023-05-23T00:05:52;98591.83;;;8.59;73.12
57847;BME280;43675;50.030;21.952;2023-05-23T00:08:18;98590.41;;;8.57;73.18
57847;BME280;43675;50.030;21.952;2023-05-23T00:10:45;98588.15;;;8.54;73.36
57847;BME280;43675;50.030;21.952;2023-05-23T00:13:12;98591.11;;;8.51;73.52
57847;BME280;43675;50.030;21.952;2023-05-23T00:15:39;98589.98;;;8.46;73.61
57847;BME280;43675;50.030;21.952;2023-05-23T00:18:06;98587.98;;;8.41;73.72
57847;BME280;43675;50.030;21.952;2023-05-23T00:20:35;98587.80;;;8.38;73.70
57847;BME280;43675;50.030;21.952;2023-05-23T00:23:01;98583.06;;;8.34;73.92
57847;BME280;43675;50.030;21.952;2023-05-23T00:25:28;98581.14;;;8.29;73.96
57847;BME280;43675;50.030;21.952;2023-05-23T00:27:55;98582.02;;;8.24;74.18
57847;BME280;43675;50.030;21.952;2023-05-23T00:30:21;98581.38;;;8.17;74.24
57847;BME280;43675;50.030;21.952;2023-05-23T00:32:48;98581.85;;;8.09;74.37
57847;BME280;43675;50.030;21.952;2023-05-23T00:35:14;98579.27;;;8.03;74.50
57847;BME280;43675;50.030;21.952;2023-05-23T00:37:41;98576.46;;;7.97;74.88
57847;BME280;43675;50.030;21.952;2023-05-23T00:40:08;98574.44;;;7.94;74.96
57847;BME280;43675;50.030;21.952;2023-05-23T00:42:34;98577.91;;;7.90;75.10
57847;BME280;43675;50.030;21.952;2023-05-23T00:45:01;98575.41;;;7.90;75.51
57847;BME280;43675;50.030;21.952;2023-05-23T00:47:28;98579.27;;;7.91;75.60
57847;BME280;43675;50.030;21.952;2023-05-23T00:49:54;98578.73;;;7.91;75.60
57847;BME280;43675;50.030;21.952;2023-05-23T00:52:21;98576.23;;;7.91;75.94
57847;BME280;43675;50.030;21.952;2023-05-23T00:54:48;98578.54;;;7.92;76.17
57847;BME280;43675;50.030;21.952;2023-05-23T00:57:15;98580.71;;;7.91;76.13
57847;BME280;43675;50.030;21.952;2023-05-23T00:59:42;98573.05;;;7.87;76.07
57847;BME280;43675;50.030;21.952;2023-05-23T01:02:10;98576.56;;;7.82;76.14
57847;BME280;43675;50.030;21.952;2023-05-23T01:04:38;98580.91;;;7.78;76.29
57847;BME280;43675;50.030;21.952;2023-05-23T01:07:05;98578.67;;;7.75;76.29
57847;BME280;43675;50.030;21.952;2023-05-23T01:09:31;98581.02;;;7.73;76.44
57847;BME280;43675;50.030;21.952;2023-05-23T01:14:41;98577.25;;;7.70;76.83
57847;BME280;43675;50.030;21.952;2023-05-23T01:17:16;98575.84;;;7.69;76.92
57847;BME280;43675;50.030;21.952;2023-05-23T01:20:08;98570.64;;;7.71;76.82
57847;BME280;43675;50.030;21.952;2023-05-23T01:28:14;98568.18;;;7.64;76.88
57847;BME280;43675;50.030;21.952;2023-05-23T01:30:43;98572.33;;;7.62;77.03
57847;BME280;43675;50.030;21.952;2023-05-23T01:33:13;98573.30;;;7.61;77.22
57847;BME280;43675;50.030;21.952;2023-05-23T01:35:42;98569.88;;;7.58;77.02
57847;BME280;43675;50.030;21.952;2023-05-23T01:38:09;98565.36;;;7.59;76.95
57847;BME280;43675;50.030;21.952;2023-05-23T01:40:35;98564.72;;;7.54;76.91
57847;BME280;43675;50.030;21.952;2023-05-23T01:43:02;98565.80;;;7.47;77.18
57847;BME280;43675;50.030;21.952;2023-05-23T01:45:29;98562.63;;;7.46;77.74
57847;BME280;43675;50.030;21.952;2023-05-23T01:47:57;98563.23;;;7.52;77.72
57847;BME280;43675;50.030;21.952;2023-05-23T01:50:25;98564.08;;;7.50;77.98
57847;BME280;43675;50.030;21.952;2023-05-23T01:52:52;98563.68;;;7.45;78.02
57847;BME280;43675;50.030;21.952;2023-05-23T01:55:20;98560.63;;;7.41;78.16
57847;BME280;43675;50.030;21.952;2023-05-23T01:57:51;98553.09;;;7.36;78.07
57847;BME280;43675;50.030;21.952;2023-05-23T02:00:19;98556.46;;;7.31;78.20
57847;BME280;43675;50.030;21.952;2023-05-23T02:02:46;98555.50;;;7.29;78.50
57847;BME280;43675;50.030;21.952;2023-05-23T02:05:13;98553.94;;;7.28;78.60
57847;BME280;43675;50.030;21.952;2023-05-23T02:07:39;98554.08;;;7.24;78.59
57847;BME280;43675;50.030;21.952;2023-05-23T02:10:07;98555.32;;;7.19;78.55
57847;BME280;43675;50.030;21.952;2023-05-23T02:12:34;98547.02;;;7.13;78.57
57847;BME280;43675;50.030;21.952;2023-05-23T02:15:01;98550.11;;;7.07;78.65
57847;BME280;43675;50.030;21.952;2023-05-23T02:17:27;98548.38;;;7.01;78.69
57847;BME280;43675;50.030;21.952;2023-05-23T02:19:54;98553.55;;;6.94;78.55
57847;BME280;43675;50.030;21.952;2023-05-23T02:22:24;98555.02;;;6.87;78.76
57847;BME280;43675;50.030;21.952;2023-05-23T02:24:51;98548.68;;;6.79;78.83
57847;BME280;43675;50.030;21.952;2023-05-23T02:27:18;98551.41;;;6.73;78.97
57847;BME280;43675;50.030;21.952;2023-05-23T02:29:44;98543.74;;;6.69;79.02
57847;BME280;43675;50.030;21.952;2023-05-23T02:32:11;98540.70;;;6.66;79.21
57847;BME280;43675;50.030;21.952;2023-05-23T02:34:38;98539.24;;;6.65;79.40
57847;BME280;43675;50.030;21.952;2023-05-23T02:37:04;98536.90;;;6.63;79.42
57847;BME280;43675;50.030;21.952;2023-05-23T02:39:31;98537.36;;;6.60;79.49
57847;BME280;43675;50.030;21.952;2023-05-23T02:41:57;98534.23;;;6.58;79.35
57847;BME280;43675;50.030;21.952;2023-05-23T02:44:24;98538.66;;;6.59;79.76
57847;BME280;43675;50.030;21.952;2023-05-23T02:46:50;98535.61;;;6.62;79.94
57847;BME280;43675;50.030;21.952;2023-05-23T02:49:17;98535.34;;;6.64;80.02
57847;BME280;43675;50.030;21.952;2023-05-23T02:51:43;98533.83;;;6.69;80.22
57847;BME280;43675;50.030;21.952;2023-05-23T02:54:10;98531.17;;;6.76;80.50
57847;BME280;43675;50.030;21.952;2023-05-23T02:56:37;98532.55;;;6.80;80.44
57847;BME280;43675;50.030;21.952;2023-05-23T02:59:03;98530.30;;;6.81;80.47
57847;BME280;43675;50.030;21.952;2023-05-23T03:01:30;98533.26;;;6.81;80.31
57847;BME280;43675;50.030;21.952;2023-05-23T03:03:56;98531.77;;;6.78;80.30
57847;BME280;43675;50.030;21.952;2023-05-23T03:06:23;98526.00;;;6.76;80.30
57847;BME280;43675;50.030;21.952;2023-05-23T03:08:49;98526.36;;;6.75;80.34
57847;BME280;43675;50.030;21.952;2023-05-23T03:11:16;98529.09;;;6.77;80.56
57847;BME280;43675;50.030;21.952;2023-05-23T03:13:42;98533.88;;;6.82;80.79
57847;BME280;43675;50.030;21.952;2023-05-23T03:16:09;98535.26;;;6.90;80.89
57847;BME280;43675;50.030;21.952;2023-05-23T03:18:36;98527.08;;;6.95;80.92
57847;BME280;43675;50.030;21.952;2023-05-23T03:21:02;98527.37;;;7.02;81.08
57847;BME280;43675;50.030;21.952;2023-05-23T03:23:29;98520.98;;;7.09;80.89
57847;BME280;43675;50.030;21.952;2023-05-23T03:25:55;98518.64;;;7.18;81.03
57847;BME280;43675;50.030;21.952;2023-05-23T03:28:22;98518.08;;;7.25;81.03
57847;BME280;43675;50.030;21.952;2023-05-23T03:30:48;98516.31;;;7.32;81.06
57847;BME280;43675;50.030;21.952;2023-05-23T03:33:15;98515.03;;;7.40;80.79
57847;BME280;43675;50.030;21.952;2023-05-23T03:35:41;98511.37;;;7.48;80.92
57847;BME280;43675;50.030;21.952;2023-05-23T03:38:08;98512.52;;;7.55;80.90
57847;BME280;43675;50.030;21.952;2023-05-23T03:40:34;98514.92;;;7.63;80.92
57847;BME280;43675;50.030;21.952;2023-05-23T03:43:02;98510.94;;;7.70;80.92
57847;BME280;43675;50.030;21.952;2023-05-23T03:45:32;98506.05;;;7.77;80.95
57847;BME280;43675;50.030;21.952;2023-05-23T03:47:59;98510.98;;;7.86;80.81
57847;BME280;43675;50.030;21.952;2023-05-23T03:50:26;98509.48;;;7.96;80.79
57847;BME280;43675;50.030;21.952;2023-05-23T03:52:53;98509.77;;;8.04;80.79
57847;BME280;43675;50.030;21.952;2023-05-23T03:55:20;98507.92;;;8.14;80.81
57847;BME280;43675;50.030;21.952;2023-05-23T03:57:48;98506.17;;;8.23;80.80
57847;BME280;43675;50.030;21.952;2023-05-23T04:00:14;98501.36;;;8.33;80.79
57847;BME280;43675;50.030;21.952;2023-05-23T04:02:41;98500.27;;;8.43;80.79
57847;BME280;43675;50.030;21.952;2023-05-23T04:05:08;98498.13;;;8.54;80.91
57847;BME280;43675;50.030;21.952;2023-05-23T04:07:35;98497.91;;;8.65;80.65
57847;BME280;43675;50.030;21.952;2023-05-23T04:10:02;98498.02;;;8.76;80.60
57847;BME280;43675;50.030;21.952;2023-05-23T04:12:29;98500.20;;;8.90;80.54
57847;BME280;43675;50.030;21.952;2023-05-23T04:14:56;98497.70;;;9.03;80.43
57847;BME280;43675;50.030;21.952;2023-05-23T04:17:23;98494.59;;;9.15;80.29
57847;BME280;43675;50.030;21.952;2023-05-23T04:19:50;98492.24;;;9.28;80.09
57847;BME280;43675;50.030;21.952;2023-05-23T04:22:17;98487.92;;;9.42;80.02
57847;BME280;43675;50.030;21.952;2023-05-23T04:24:43;98484.11;;;9.57;79.74
57847;BME280;43675;50.030;21.952;2023-05-23T04:27:10;98480.63;;;9.72;79.63
57847;BME280;43675;50.030;21.952;2023-05-23T04:29:36;98481.84;;;9.86;79.22
57847;BME280;43675;50.030;21.952;2023-05-23T04:32:03;98479.43;;;10.02;78.94
57847;BME280;43675;50.030;21.952;2023-05-23T04:34:33;98479.60;;;10.18;78.56
57847;BME280;43675;50.030;21.952;2023-05-23T04:37:00;98480.16;;;10.33;78.21
57847;BME280;43675;50.030;21.952;2023-05-23T04:39:27;98479.73;;;10.50;77.72
57847;BME280;43675;50.030;21.952;2023-05-23T04:41:55;98476.48;;;10.65;77.39
57847;BME280;43675;50.030;21.952;2023-05-23T04:44:24;98475.98;;;10.79;77.10
57847;BME280;43675;50.030;21.952;2023-05-23T04:46:51;98475.75;;;10.94;76.79
57847;BME280;43675;50.030;21.952;2023-05-23T04:49:17;98471.46;;;11.10;76.54
57847;BME280;43675;50.030;21.952;2023-05-23T04:51:44;98469.37;;;11.25;76.21
57847;BME280;43675;50.030;21.952;2023-05-23T04:54:10;98460.89;;;11.39;75.77
57847;BME280;43675;50.030;21.952;2023-05-23T04:56:37;98457.66;;;11.53;75.47
57847;BME280;43675;50.030;21.952;2023-05-23T04:59:04;98452.70;;;11.67;75.01
57847;BME280;43675;50.030;21.952;2023-05-23T05:01:30;98453.81;;;11.81;74.54
57847;BME280;43675;50.030;21.952;2023-05-23T05:03:57;98448.47;;;11.94;73.88
57847;BME280;43675;50.030;21.952;2023-05-23T05:06:23;98448.36;;;12.06;73.47
57847;BME280;43675;50.030;21.952;2023-05-23T05:08:50;98443.43;;;12.18;73.30
57847;BME280;43675;50.030;21.952;2023-05-23T05:11:16;98439.06;;;12.30;72.95
57847;BME280;43675;50.030;21.952;2023-05-23T05:13:43;98439.02;;;12.43;72.52
57847;BME280;43675;50.030;21.952;2023-05-23T05:16:09;98441.95;;;12.56;72.32
57847;BME280;43675;50.030;21.952;2023-05-23T05:18:36;98441.53;;;12.69;72.01
57847;BME280;43675;50.030;21.952;2023-05-23T05:21:02;98438.11;;;12.82;71.59
57847;BME280;43675;50.030;21.952;2023-05-23T05:23:30;98433.52;;;12.93;71.14
57847;BME280;43675;50.030;21.952;2023-05-23T05:25:57;98432.33;;;13.05;70.70
57847;BME280;43675;50.030;21.952;2023-05-23T05:28:23;98433.95;;;13.18;70.14
57847;BME280;43675;50.030;21.952;2023-05-23T05:30:50;98436.96;;;13.29;69.47
57847;BME280;43675;50.030;21.952;2023-05-23T05:33:16;98437.72;;;13.39;69.45
57847;BME280;43675;50.030;21.952;2023-05-23T05:35:43;98435.86;;;13.51;69.03
57847;BME280;43675;50.030;21.952;2023-05-23T05:38:09;98431.85;;;13.63;69.08
57847;BME280;43675;50.030;21.952;2023-05-23T05:40:35;98430.26;;;13.76;68.61
57847;BME280;43675;50.030;21.952;2023-05-23T05:43:02;98428.05;;;13.87;68.46
57847;BME280;43675;50.030;21.952;2023-05-23T05:45:28;98431.45;;;13.99;68.06
57847;BME280;43675;50.030;21.952;2023-05-23T05:47:55;98433.20;;;14.09;67.62
57847;BME280;43675;50.030;21.952;2023-05-23T05:50:22;98430.11;;;14.20;67.22
57847;BME280;43675;50.030;21.952;2023-05-23T05:52:48;98435.18;;;14.32;66.72
57847;BME280;43675;50.030;21.952;2023-05-23T05:55:15;98432.77;;;14.43;66.55
57847;BME280;43675;50.030;21.952;2023-05-23T05:57:42;98437.13;;;14.56;66.11
57847;BME280;43675;50.030;21.952;2023-05-23T06:00:10;98434.16;;;14.70;65.25
57847;BME280;43675;50.030;21.952;2023-05-23T06:02:41;98436.16;;;14.85;64.53
57847;BME280;43675;50.030;21.952;2023-05-23T06:05:09;98431.83;;;14.99;63.99
57847;BME280;43675;50.030;21.952;2023-05-23T06:07:35;98429.40;;;15.15;63.64
57847;BME280;43675;50.030;21.952;2023-05-23T06:10:02;98426.98;;;15.40;63.00
57847;BME280;43675;50.030;21.952;2023-05-23T06:12:29;98427.02;;;15.55;62.75
57847;BME280;43675;50.030;21.952;2023-05-23T06:14:55;98429.33;;;15.66;62.54
57847;BME280;43675;50.030;21.952;2023-05-23T06:17:22;98424.57;;;15.76;62.31
57847;BME280;43675;50.030;21.952;2023-05-23T06:19:48;98429.56;;;15.88;62.05
57847;BME280;43675;50.030;21.952;2023-05-23T06:22:15;98428.45;;;16.00;62.23
57847;BME280;43675;50.030;21.952;2023-05-23T06:24:42;98429.06;;;16.13;61.92
57847;BME280;43675;50.030;21.952;2023-05-23T06:27:08;98428.99;;;16.28;61.40
57847;BME280;43675;50.030;21.952;2023-05-23T06:29:35;98427.80;;;16.40;60.97
57847;BME280;43675;50.030;21.952;2023-05-23T06:32:01;98424.16;;;16.51;60.68
57847;BME280;43675;50.030;21.952;2023-05-23T06:34:28;98428.23;;;16.62;59.74
57847;BME280;43675;50.030;21.952;2023-05-23T06:36:54;98425.84;;;16.74;59.27
57847;BME280;43675;50.030;21.952;2023-05-23T06:39:21;98426.93;;;16.83;58.89
57847;BME280;43675;50.030;21.952;2023-05-23T06:41:47;98423.42;;;16.92;58.56
57847;BME280;43675;50.030;21.952;2023-05-23T06:44:14;98426.33;;;16.99;58.80
57847;BME280;43675;50.030;21.952;2023-05-23T06:46:47;98424.92;;;17.09;58.42
57847;BME280;43675;50.030;21.952;2023-05-23T06:49:14;98419.89;;;17.20;58.24
57847;BME280;43675;50.030;21.952;2023-05-23T06:51:40;98415.55;;;17.30;57.89
57847;BME280;43675;50.030;21.952;2023-05-23T06:54:07;98419.67;;;17.41;57.75
57847;BME280;43675;50.030;21.952;2023-05-23T06:56:33;98418.02;;;17.49;57.22
57847;BME280;43675;50.030;21.952;2023-05-23T06:59:00;98417.20;;;17.57;56.81
57847;BME280;43675;50.030;21.952;2023-05-23T07:01:26;98418.00;;;17.65;56.94
57847;BME280;43675;50.030;21.952;2023-05-23T07:03:53;98414.88;;;17.74;56.80
57847;BME280;43675;50.030;21.952;2023-05-23T07:06:20;98407.05;;;17.85;56.31
57847;BME280;43675;50.030;21.952;2023-05-23T07:08:46;98408.15;;;17.99;55.68
57847;BME280;43675;50.030;21.952;2023-05-23T07:11:13;98405.03;;;18.10;55.55
57847;BME280;43675;50.030;21.952;2023-05-23T07:13:39;98410.21;;;18.20;55.17
57847;BME280;43675;50.030;21.952;2023-05-23T07:16:06;98407.98;;;18.31;55.07
57847;BME280;43675;50.030;21.952;2023-05-23T07:18:32;98404.36;;;18.42;54.52
57847;BME280;43675;50.030;21.952;2023-05-23T07:20:59;98403.78;;;18.55;53.99
57847;BME280;43675;50.030;21.952;2023-05-23T07:23:25;98403.29;;;18.65;54.28
57847;BME280;43675;50.030;21.952;2023-05-23T07:25:52;98402.36;;;18.76;53.83
57847;BME280;43675;50.030;21.952;2023-05-23T07:28:19;98404.58;;;18.82;52.85
57847;BME280;43675;50.030;21.952;2023-05-23T07:30:45;98398.54;;;18.89;52.91
57847;BME280;43675;50.030;21.952;2023-05-23T07:33:12;98399.98;;;18.98;52.80
57847;BME280;43675;50.030;21.952;2023-05-23T07:35:38;98393.55;;;19.07;52.41
57847;BME280;43675;50.030;21.952;2023-05-23T07:38:05;98391.45;;;19.17;52.34
57847;BME280;43675;50.030;21.952;2023-05-23T07:40:31;98392.23;;;19.27;52.06
57847;BME280;43675;50.030;21.952;2023-05-23T07:42:58;98391.66;;;19.37;51.78
57847;BME280;43675;50.030;21.952;2023-05-23T07:45:24;98391.91;;;19.48;51.44
57847;BME280;43675;50.030;21.952;2023-05-23T07:47:51;98392.02;;;19.59;51.24
57847;BME280;43675;50.030;21.952;2023-05-23T07:50:17;98388.61;;;19.66;50.51
57847;BME280;43675;50.030;21.952;2023-05-23T07:52:45;98387.34;;;19.72;50.24
57847;BME280;43675;50.030;21.952;2023-05-23T07:55:12;98385.61;;;19.79;50.39
57847;BME280;43675;50.030;21.952;2023-05-23T07:57:38;98380.45;;;19.86;50.51
57847;BME280;43675;50.030;21.952;2023-05-23T08:00:05;98377.16;;;19.92;50.57
57847;BME280;43675;50.030;21.952;2023-05-23T08:02:32;98373.44;;;20.00;50.47
57847;BME280;43675;50.030;21.952;2023-05-23T08:04:59;98374.41;;;20.09;50.34
57847;BME280;43675;50.030;21.952;2023-05-23T08:07:25;98373.54;;;20.18;50.50
57847;BME280;43675;50.030;21.952;2023-05-23T08:09:52;98368.57;;;20.26;50.57
57847;BME280;43675;50.030;21.952;2023-05-23T08:12:19;98367.12;;;20.35;50.08
57847;BME280;43675;50.030;21.952;2023-05-23T08:14:45;98362.06;;;20.46;48.87
57847;BME280;43675;50.030;21.952;2023-05-23T08:17:12;98367.14;;;20.57;48.93
57847;BME280;43675;50.030;21.952;2023-05-23T08:19:38;98365.97;;;20.66;48.30
57847;BME280;43675;50.030;21.952;2023-05-23T08:22:05;98361.75;;;20.74;48.23
57847;BME280;43675;50.030;21.952;2023-05-23T08:24:31;98361.05;;;20.84;48.46
57847;BME280;43675;50.030;21.952;2023-05-23T08:26:58;98356.42;;;20.92;47.77
57847;BME280;43675;50.030;21.952;2023-05-23T08:29:25;98356.52;;;21.00;46.74
57847;BME280;43675;50.030;21.952;2023-05-23T08:31:51;98358.98;;;21.05;46.11
57847;BME280;43675;50.030;21.952;2023-05-23T08:34:18;98357.75;;;21.15;46.53
57847;BME280;43675;50.030;21.952;2023-05-23T08:36:44;98359.11;;;21.28;46.07
57847;BME280;43675;50.030;21.952;2023-05-23T08:39:11;98353.30;;;21.39;45.98
57847;BME280;43675;50.030;21.952;2023-05-23T08:41:38;98354.67;;;21.52;45.41
57847;BME280;43675;50.030;21.952;2023-05-23T08:44:05;98353.38;;;21.62;44.90
57847;BME280;43675;50.030;21.952;2023-05-23T08:46:32;98350.22;;;21.74;44.43
57847;BME280;43675;50.030;21.952;2023-05-23T08:48:59;98350.61;;;21.85;44.20
57847;BME280;43675;50.030;21.952;2023-05-23T08:51:26;98354.69;;;21.95;44.17
57847;BME280;43675;50.030;21.952;2023-05-23T08:53:53;98354.27;;;22.01;43.75
57847;BME280;43675;50.030;21.952;2023-05-23T08:56:20;98349.30;;;22.04;42.32
57847;BME280;43675;50.030;21.952;2023-05-23T08:58:47;98352.98;;;22.08;42.18
57847;BME280;43675;50.030;21.952;2023-05-23T09:01:14;98354.48;;;22.12;42.03
57847;BME280;43675;50.030;21.952;2023-05-23T09:03:41;98352.73;;;22.16;41.80
57847;BME280;43675;50.030;21.952;2023-05-23T09:06:10;98349.48;;;22.21;41.46
57847;BME280;43675;50.030;21.952;2023-05-23T09:08:37;98348.92;;;22.25;41.64
57847;BME280;43675;50.030;21.952;2023-05-23T09:11:05;98347.98;;;22.29;41.99
57847;BME280;43675;50.030;21.952;2023-05-23T09:13:32;98345.55;;;22.31;41.83
57847;BME280;43675;50.030;21.952;2023-05-23T09:16:08;98343.39;;;22.35;42.39
57847;BME280;43675;50.030;21.952;2023-05-23T09:18:42;98347.06;;;22.42;41.89
57847;BME280;43675;50.030;21.952;2023-05-23T09:21:13;98343.45;;;22.54;41.86
57847;BME280;43675;50.030;21.952;2023-05-23T09:23:40;98348.52;;;22.67;41.45
57847;BME280;43675;50.030;21.952;2023-05-23T09:26:08;98348.09;;;22.79;41.35
57847;BME280;43675;50.030;21.952;2023-05-23T09:28:37;98342.30;;;22.91;40.88
57847;BME280;43675;50.030;21.952;2023-05-23T09:31:05;98346.27;;;23.02;40.25
57847;BME280;43675;50.030;21.952;2023-05-23T09:33:42;98347.30;;;23.15;40.38
57847;BME280;43675;50.030;21.952;2023-05-23T09:36:09;98345.60;;;23.36;40.04
57847;BME280;43675;50.030;21.952;2023-05-23T09:38:40;98343.08;;;23.46;39.41
57847;BME280;43675;50.030;21.952;2023-05-23T09:41:08;98340.11;;;23.53;39.21
57847;BME280;43675;50.030;21.952;2023-05-23T09:43:34;98338.13;;;23.60;38.74
57847;BME280;43675;50.030;21.952;2023-05-23T09:46:07;98338.38;;;23.65;37.81
57847;BME280;43675;50.030;21.952;2023-05-23T09:48:34;98337.18;;;23.72;37.38
57847;BME280;43675;50.030;21.952;2023-05-23T09:51:04;98335.36;;;23.78;36.94
57847;BME280;43675;50.030;21.952;2023-05-23T09:53:31;98328.20;;;23.82;36.98
57847;BME280;43675;50.030;21.952;2023-05-23T09:55:58;98328.45;;;23.83;36.29
57847;BME280;43675;50.030;21.952;2023-05-23T09:58:27;98323.50;;;23.86;36.41
57847;BME280;43675;50.030;21.952;2023-05-23T10:00:55;98317.42;;;23.90;36.71
57847;BME280;43675;50.030;21.952;2023-05-23T10:03:49;98317.94;;;23.94;36.34
57847;BME280;43675;50.030;21.952;2023-05-23T10:06:31;98319.02;;;24.01;35.99
57847;BME280;43675;50.030;21.952;2023-05-23T10:09:04;98317.63;;;24.09;35.55
57847;BME280;43675;50.030;21.952;2023-05-23T10:14:09;98308.81;;;24.11;35.60
57847;BME280;43675;50.030;21.952;2023-05-23T10:17:00;98313.41;;;24.07;35.70
57847;BME280;43675;50.030;21.952;2023-05-23T10:19:40;98312.02;;;24.10;35.95
57847;BME280;43675;50.030;21.952;2023-05-23T10:22:11;98311.70;;;24.18;36.02
57847;BME280;43675;50.030;21.952;2023-05-23T10:24:39;98313.56;;;24.25;35.47
57847;BME280;43675;50.030;21.952;2023-05-23T10:27:07;98308.66;;;24.31;35.10
57847;BME280;43675;50.030;21.952;2023-05-23T10:29:34;98305.52;;;24.37;34.81
57847;BME280;43675;50.030;21.952;2023-05-23T10:32:02;98301.98;;;24.40;35.16
57847;BME280;43675;50.030;21.952;2023-05-23T10:34:37;98301.70;;;24.42;35.40
57847;BME280;43675;50.030;21.952;2023-05-23T10:37:07;98304.60;;;24.46;34.61
57847;BME280;43675;50.030;21.952;2023-05-23T10:39:45;98306.75;;;24.48;34.86
57847;BME280;43675;50.030;21.952;2023-05-23T10:42:19;98306.02;;;24.51;34.48
57847;BME280;43675;50.030;21.952;2023-05-23T10:44:47;98304.89;;;24.57;34.41
57847;BME280;43675;50.030;21.952;2023-05-23T10:47:25;98304.48;;;24.64;34.65
57847;BME280;43675;50.030;21.952;2023-05-23T10:49:52;98300.79;;;24.67;34.24
57847;BME280;43675;50.030;21.952;2023-05-23T10:52:18;98298.40;;;24.68;34.06
57847;BME280;43675;50.030;21.952;2023-05-23T10:54:53;98295.19;;;24.65;34.19
57847;BME280;43675;50.030;21.952;2023-05-23T10:57:21;98294.34;;;24.64;34.79
57847;BME280;43675;50.030;21.952;2023-05-23T10:59:50;98289.77;;;24.64;34.44
57847;BME280;43675;50.030;21.952;2023-05-23T11:02:19;98283.48;;;24.63;34.45
57847;BME280;43675;50.030;21.952;2023-05-23T11:05:30;98282.33;;;24.63;35.10
57847;BME280;43675;50.030;21.952;2023-05-23T11:08:06;98276.42;;;24.71;35.43
57847;BME280;43675;50.030;21.952;2023-05-23T11:10:59;98275.33;;;24.83;35.17
57847;BME280;43675;50.030;21.952;2023-05-23T11:13:56;98271.02;;;24.95;35.43
57847;BME280;43675;50.030;21.952;2023-05-23T11:16:38;98266.34;;;25.09;35.28
57847;BME280;43675;50.030;21.952;2023-05-23T11:21:51;98263.33;;;25.19;35.01
57847;BME280;43675;50.030;21.952;2023-05-23T11:24:18;98256.90;;;25.19;34.96
57847;BME280;43675;50.030;21.952;2023-05-23T11:26:58;98253.02;;;25.22;34.92
57847;BME280;43675;50.030;21.952;2023-05-23T11:29:28;98246.16;;;25.21;34.69
57847;BME280;43675;50.030;21.952;2023-05-23T11:31:55;98248.80;;;25.22;34.74
57847;BME280;43675;50.030;21.952;2023-05-23T11:34:24;98244.23;;;25.25;34.52
57847;BME280;43675;50.030;21.952;2023-05-23T11:36:55;98244.80;;;25.24;34.83
57847;BME280;43675;50.030;21.952;2023-05-23T11:39:22;98238.52;;;25.24;34.77
57847;BME280;43675;50.030;21.952;2023-05-23T11:41:59;98234.42;;;25.22;35.00
57847;BME280;43675;50.030;21.952;2023-05-23T11:44:26;98233.30;;;25.13;34.87
57847;BME280;43675;50.030;21.952;2023-05-23T11:49:28;98228.23;;;25.06;35.02
57847;BME280;43675;50.030;21.952;2023-05-23T11:51:54;98217.58;;;25.04;35.18
57847;BME280;43675;50.030;21.952;2023-05-23T11:54:23;98218.94;;;25.03;35.49
57847;BME280;43675;50.030;21.952;2023-05-23T11:56:50;98214.81;;;25.05;35.37
57847;BME280;43675;50.030;21.952;2023-05-23T11:59:16;98215.39;;;25.04;35.06
57847;BME280;43675;50.030;21.952;2023-05-23T12:01:43;98212.65;;;25.10;35.15
57847;BME280;43675;50.030;21.952;2023-05-23T12:04:10;98212.80;;;25.16;35.06
57847;BME280;43675;50.030;21.952;2023-05-23T12:06:38;98207.70;;;25.24;35.25
57847;BME280;43675;50.030;21.952;2023-05-23T12:09:05;98204.64;;;25.36;34.66
57847;BME280;43675;50.030;21.952;2023-05-23T12:11:32;98200.96;;;25.47;34.63
57847;BME280;43675;50.030;21.952;2023-05-23T12:13:59;98197.95;;;25.54;34.98
57847;BME280;43675;50.030;21.952;2023-05-23T12:16:27;98197.86;;;25.66;35.02
57847;BME280;43675;50.030;21.952;2023-05-23T12:18:54;98193.58;;;25.80;35.12
57847;BME280;43675;50.030;21.952;2023-05-23T12:21:24;98193.60;;;25.95;34.75
57847;BME280;43675;50.030;21.952;2023-05-23T12:23:51;98191.24;;;26.07;34.54
57847;BME280;43675;50.030;21.952;2023-05-23T12:26:18;98187.50;;;26.19;33.88
57847;BME280;43675;50.030;21.952;2023-05-23T12:28:44;98183.56;;;26.22;33.95
57847;BME280;43675;50.030;21.952;2023-05-23T12:33:42;98178.07;;;26.31;33.84
57847;BME280;43675;50.030;21.952;2023-05-23T12:36:13;98173.17;;;26.41;33.85
57847;BME280;43675;50.030;21.952;2023-05-23T12:38:41;98164.70;;;26.48;33.93
57847;BME280;43675;50.030;21.952;2023-05-23T12:43:55;98166.48;;;26.55;33.70
57847;BME280;43675;50.030;21.952;2023-05-23T12:46:23;98167.55;;;26.69;33.69
57847;BME280;43675;50.030;21.952;2023-05-23T12:48:50;98163.73;;;26.68;33.04
57847;BME280;43675;50.030;21.952;2023-05-23T12:51:18;98166.70;;;26.64;33.21
57847;BME280;43675;50.030;21.952;2023-05-23T12:53:44;98164.02;;;26.62;33.16
57847;BME280;43675;50.030;21.952;2023-05-23T12:56:11;98162.61;;;26.70;33.09
57847;BME280;43675;50.030;21.952;2023-05-23T12:58:38;98161.52;;;26.84;32.88
57847;BME280;43675;50.030;21.952;2023-05-23T13:01:04;98157.36;;;26.94;32.82
57847;BME280;43675;50.030;21.952;2023-05-23T13:03:31;98157.09;;;27.01;32.77
57847;BME280;43675;50.030;21.952;2023-05-23T13:05:58;98154.32;;;27.04;32.50
57847;BME280;43675;50.030;21.952;2023-05-23T13:08:25;98151.38;;;27.11;32.52
57847;BME280;43675;50.030;21.952;2023-05-23T13:10:52;98155.66;;;27.27;32.48
57847;BME280;43675;50.030;21.952;2023-05-23T13:13:19;98152.09;;;27.46;32.39
57847;BME280;43675;50.030;21.952;2023-05-23T13:15:46;98146.06;;;27.66;31.99
57847;BME280;43675;50.030;21.952;2023-05-23T13:18:12;98144.73;;;27.81;31.79